sensor_id;sensor_type;location;lat;lon;timestamp;pressure;altitude;pressure_sealevel;temperature;humidity
77366;BME280;66430;50.182;11.704;2023-04-10T00:00:28;95396.60;;;8.43;36.80
77366;BME280;66430;50.182;11.704;2023-04-10T00:02:53;95397.29;;;7.71;37.02
77366;BME280;66430;50.182;11.704;2023-04-10T00:05:18;95400.97;;;7.96;37.44
77366;BME280;66430;50.182;11.704;2023-04-10T00:07:44;95397.96;;;7.74;36.88
77366;BME280;66430;50.182;11.704;2023-04-10T00:10:09;95401.08;;;7.63;37.08
77366;BME280;66430;50.182;11.704;2023-04-10T00:12:35;95402.55;;;8.04;36.72
77366;BME280;66430;50.182;11.704;2023-04-10T00:15:00;95406.06;;;8.23;37.26
77366;BME280;66430;50.182;11.704;2023-04-10T00:17:25;95405.12;;;7.88;37.14
77366;BME280;66430;50.182;11.704;2023-04-10T00:19:50;95402.47;;;7.80;36.76
77366;BME280;66430;50.182;11.704;2023-04-10T00:22:15;95400.47;;;7.29;36.91
77366;BME280;66430;50.182;11.704;2023-04-10T00:24:41;95399.72;;;7.05;37.42
77366;BME280;66430;50.182;11.704;2023-04-10T00:27:06;95394.74;;;7.09;37.64
77366;BME280;66430;50.182;11.704;2023-04-10T00:29:32;95392.73;;;6.94;37.28
77366;BME280;66430;50.182;11.704;2023-04-10T00:31:58;95383.45;;;7.15;37.73
77366;BME280;66430;50.182;11.704;2023-04-10T00:34:23;95377.45;;;7.01;38.05
77366;BME280;66430;50.182;11.704;2023-04-10T00:36:49;95376.49;;;7.27;37.93
77366;BME280;66430;50.182;11.704;2023-04-10T00:39:14;95373.71;;;7.07;37.85
77366;BME280;66430;50.182;11.704;2023-04-10T00:41:39;95371.81;;;7.09;37.79
77366;BME280;66430;50.182;11.704;2023-04-10T00:44:06;95370.81;;;7.11;38.52
77366;BME280;66430;50.182;11.704;2023-04-10T00:46:31;95369.21;;;7.14;37.85
77366;BME280;66430;50.182;11.704;2023-04-10T00:48:56;95365.25;;;6.98;37.42
77366;BME280;66430;50.182;11.704;2023-04-10T00:51:22;95361.88;;;7.47;37.58
77366;BME280;66430;50.182;11.704;2023-04-10T00:53:47;95359.27;;;7.01;37.29
77366;BME280;66430;50.182;11.704;2023-04-10T00:56:12;95358.42;;;7.27;37.53
77366;BME280;66430;50.182;11.704;2023-04-10T00:58:37;95356.18;;;7.28;37.52
77366;BME280;66430;50.182;11.704;2023-04-10T01:01:03;95360.00;;;7.31;37.78
77366;BME280;66430;50.182;11.704;2023-04-10T01:03:28;95360.10;;;7.08;37.63
77366;BME280;66430;50.182;11.704;2023-04-10T01:06:01;95359.53;;;7.35;37.92
77366;BME280;66430;50.182;11.704;2023-04-10T01:08:28;95355.87;;;7.37;37.70
77366;BME280;66430;50.182;11.704;2023-04-10T01:10:51;95354.35;;;7.17;37.77
77366;BME280;66430;50.182;11.704;2023-04-10T01:13:18;95353.59;;;7.20;38.05
77366;BME280;66430;50.182;11.704;2023-04-10T01:15:41;95355.79;;;7.67;37.81
77366;BME280;66430;50.182;11.704;2023-04-10T01:18:07;95358.24;;;7.46;38.44
77366;BME280;66430;50.182;11.704;2023-04-10T01:20:29;95361.15;;;7.67;38.59
77366;BME280;66430;50.182;11.704;2023-04-10T01:25:29;95363.31;;;7.58;38.06
77366;BME280;66430;50.182;11.704;2023-04-10T01:27:52;95363.46;;;7.40;37.83
77366;BME280;66430;50.182;11.704;2023-04-10T01:30:11;95365.30;;;7.67;37.63
77366;BME280;66430;50.182;11.704;2023-04-10T01:32:34;95364.90;;;7.17;37.76
77366;BME280;66430;50.182;11.704;2023-04-10T01:35:01;95363.87;;;7.40;37.73
77366;BME280;66430;50.182;11.704;2023-04-10T01:37:28;95363.78;;;7.37;37.62
77366;BME280;66430;50.182;11.704;2023-04-10T01:39:53;95363.49;;;7.29;37.61
77366;BME280;66430;50.182;11.704;2023-04-10T01:42:16;95362.34;;;7.51;37.82
77366;BME280;66430;50.182;11.704;2023-04-10T01:44:41;95361.16;;;7.19;37.53
77366;BME280;66430;50.182;11.704;2023-04-10T01:47:06;95362.20;;;7.14;37.60
77366;BME280;66430;50.182;11.704;2023-04-10T01:49:32;95358.13;;;7.06;37.53
77366;BME280;66430;50.182;11.704;2023-04-10T01:51:57;95354.30;;;7.28;37.75
77366;BME280;66430;50.182;11.704;2023-04-10T01:54:21;95348.20;;;7.28;37.55
77366;BME280;66430;50.182;11.704;2023-04-10T01:56:47;95346.66;;;7.05;37.55
77366;BME280;66430;50.182;11.704;2023-04-10T01:59:13;95345.86;;;7.15;37.84
77366;BME280;66430;50.182;11.704;2023-04-10T02:01:38;95348.33;;;7.18;37.98
77366;BME280;66430;50.182;11.704;2023-04-10T02:04:03;95352.10;;;7.41;37.91
77366;BME280;66430;50.182;11.704;2023-04-10T02:06:36;95353.32;;;7.17;37.95
77366;BME280;66430;50.182;11.704;2023-04-10T02:08:58;95354.99;;;7.36;38.21
77366;BME280;66430;50.182;11.704;2023-04-10T02:11:28;95354.84;;;7.34;37.66
77366;BME280;66430;50.182;11.704;2023-04-10T02:13:45;95353.53;;;7.34;37.65
77366;BME280;66430;50.182;11.704;2023-04-10T02:16:11;95352.09;;;7.34;37.72
77366;BME280;66430;50.182;11.704;2023-04-10T02:18:36;95347.73;;;7.13;37.35
77366;BME280;66430;50.182;11.704;2023-04-10T02:21:01;95347.66;;;7.27;36.74
77366;BME280;66430;50.182;11.704;2023-04-10T02:23:27;95346.08;;;6.98;37.05
77366;BME280;66430;50.182;11.704;2023-04-10T02:25:53;95350.20;;;7.23;37.44
77366;BME280;66430;50.182;11.704;2023-04-10T02:28:17;95347.68;;;6.98;37.98
77366;BME280;66430;50.182;11.704;2023-04-10T02:30:43;95346.67;;;6.98;37.94
77366;BME280;66430;50.182;11.704;2023-04-10T02:33:08;95346.63;;;7.06;37.92
77366;BME280;66430;50.182;11.704;2023-04-10T02:35:35;95344.60;;;7.26;37.65
77366;BME280;66430;50.182;11.704;2023-04-10T02:38:00;95342.94;;;7.29;37.85
77366;BME280;66430;50.182;11.704;2023-04-10T02:40:26;95346.12;;;7.00;37.88
77366;BME280;66430;50.182;11.704;2023-04-10T02:42:52;95344.69;;;7.49;37.84
77366;BME280;66430;50.182;11.704;2023-04-10T02:45:17;95344.65;;;7.25;37.18
77366;BME280;66430;50.182;11.704;2023-04-10T02:47:41;95344.74;;;7.21;37.01
77366;BME280;66430;50.182;11.704;2023-04-10T02:50:08;95347.33;;;7.09;36.89
77366;BME280;66430;50.182;11.704;2023-04-10T02:52:32;95349.37;;;7.01;37.16
77366;BME280;66430;50.182;11.704;2023-04-10T02:54:58;95347.42;;;7.00;37.11
77366;BME280;66430;50.182;11.704;2023-04-10T02:57:22;95348.33;;;7.18;37.25
77366;BME280;66430;50.182;11.704;2023-04-10T02:59:50;95348.64;;;7.16;37.93
77366;BME280;66430;50.182;11.704;2023-04-10T03:02:14;95349.33;;;6.90;37.65
77366;BME280;66430;50.182;11.704;2023-04-10T03:04:39;95347.38;;;6.86;37.48
77366;BME280;66430;50.182;11.704;2023-04-10T03:07:08;95348.16;;;6.85;38.21
77366;BME280;66430;50.182;11.704;2023-04-10T03:09:33;95350.80;;;7.11;38.53
77366;BME280;66430;50.182;11.704;2023-04-10T03:11:55;95346.98;;;7.18;38.54
77366;BME280;66430;50.182;11.704;2023-04-10T03:14:21;95347.05;;;6.97;38.42
77366;BME280;66430;50.182;11.704;2023-04-10T03:16:46;95346.43;;;7.13;38.08
77366;BME280;66430;50.182;11.704;2023-04-10T03:19:13;95349.97;;;6.61;37.72
77366;BME280;66430;50.182;11.704;2023-04-10T03:21:38;95352.47;;;6.81;37.77
77366;BME280;66430;50.182;11.704;2023-04-10T03:24:03;95349.88;;;6.82;37.89
77366;BME280;66430;50.182;11.704;2023-04-10T03:26:29;95345.68;;;7.01;37.72
77366;BME280;66430;50.182;11.704;2023-04-10T03:28:54;95344.86;;;6.77;38.12
77366;BME280;66430;50.182;11.704;2023-04-10T03:31:19;95342.90;;;7.02;38.24
77366;BME280;66430;50.182;11.704;2023-04-10T03:33:45;95346.06;;;6.80;38.20
77366;BME280;66430;50.182;11.704;2023-04-10T03:36:10;95345.38;;;6.99;37.75
77366;BME280;66430;50.182;11.704;2023-04-10T03:38:36;95346.64;;;6.97;37.80
77366;BME280;66430;50.182;11.704;2023-04-10T03:41:01;95346.67;;;6.98;37.89
77366;BME280;66430;50.182;11.704;2023-04-10T03:43:28;95345.94;;;6.93;37.64
77366;BME280;66430;50.182;11.704;2023-04-10T03:45:52;95344.22;;;6.93;37.74
77366;BME280;66430;50.182;11.704;2023-04-10T03:48:18;95342.48;;;6.88;37.87
77366;BME280;66430;50.182;11.704;2023-04-10T03:50:43;95340.08;;;6.85;37.54
77366;BME280;66430;50.182;11.704;2023-04-10T03:53:09;95341.99;;;6.34;37.63
77366;BME280;66430;50.182;11.704;2023-04-10T03:55:34;95341.79;;;6.82;37.73
77366;BME280;66430;50.182;11.704;2023-04-10T03:57:59;95343.55;;;6.86;37.65
77366;BME280;66430;50.182;11.704;2023-04-10T04:00:25;95346.24;;;6.87;37.63
77366;BME280;66430;50.182;11.704;2023-04-10T04:02:50;95345.97;;;6.60;38.06
77366;BME280;66430;50.182;11.704;2023-04-10T04:05:16;95346.14;;;6.83;37.91
77366;BME280;66430;50.182;11.704;2023-04-10T04:07:42;95344.80;;;6.79;38.01
77366;BME280;66430;50.182;11.704;2023-04-10T04:10:07;95350.52;;;6.74;38.22
77366;BME280;66430;50.182;11.704;2023-04-10T04:12:33;95353.10;;;6.75;38.03
77366;BME280;66430;50.182;11.704;2023-04-10T04:14:58;95354.53;;;6.70;37.75
77366;BME280;66430;50.182;11.704;2023-04-10T04:17:23;95356.65;;;6.65;37.72
77366;BME280;66430;50.182;11.704;2023-04-10T04:19:49;95359.37;;;6.40;37.87
77366;BME280;66430;50.182;11.704;2023-04-10T04:22:14;95357.51;;;6.63;37.70
77366;BME280;66430;50.182;11.704;2023-04-10T04:24:40;95356.15;;;6.66;37.87
77366;BME280;66430;50.182;11.704;2023-04-10T04:27:05;95358.33;;;6.70;37.96
77366;BME280;66430;50.182;11.704;2023-04-10T04:29:30;95359.56;;;6.73;37.99
77366;BME280;66430;50.182;11.704;2023-04-10T04:31:55;95362.80;;;6.74;37.80
77366;BME280;66430;50.182;11.704;2023-04-10T04:34:20;95360.55;;;6.73;37.66
77366;BME280;66430;50.182;11.704;2023-04-10T04:36:46;95361.31;;;6.73;37.65
77366;BME280;66430;50.182;11.704;2023-04-10T04:39:12;95362.02;;;6.83;37.78
77366;BME280;66430;50.182;11.704;2023-04-10T04:41:37;95354.89;;;6.87;37.78
77366;BME280;66430;50.182;11.704;2023-04-10T04:44:04;95352.30;;;6.83;37.10
77366;BME280;66430;50.182;11.704;2023-04-10T04:46:28;95354.68;;;6.59;37.46
77366;BME280;66430;50.182;11.704;2023-04-10T04:48:54;95357.77;;;6.84;37.44
77366;BME280;66430;50.182;11.704;2023-04-10T04:51:19;95360.86;;;6.88;37.71
77366;BME280;66430;50.182;11.704;2023-04-10T04:53:44;95359.21;;;6.71;37.81
77366;BME280;66430;50.182;11.704;2023-04-10T04:56:11;95359.16;;;7.04;37.65
77366;BME280;66430;50.182;11.704;2023-04-10T04:58:36;95361.33;;;7.08;37.77
77366;BME280;66430;50.182;11.704;2023-04-10T05:01:02;95362.35;;;7.14;37.59
77366;BME280;66430;50.182;11.704;2023-04-10T05:03:27;95366.39;;;7.23;37.56
77366;BME280;66430;50.182;11.704;2023-04-10T05:05:53;95368.74;;;7.17;37.32
77366;BME280;66430;50.182;11.704;2023-04-10T05:08:18;95367.96;;;7.19;37.36
77366;BME280;66430;50.182;11.704;2023-04-10T05:10:44;95369.75;;;7.27;37.29
77366;BME280;66430;50.182;11.704;2023-04-10T05:13:10;95370.03;;;7.08;37.31
77366;BME280;66430;50.182;11.704;2023-04-10T05:15:35;95371.69;;;7.36;37.14
77366;BME280;66430;50.182;11.704;2023-04-10T05:18:00;95369.49;;;7.40;37.29
77366;BME280;66430;50.182;11.704;2023-04-10T05:20:25;95368.11;;;7.06;37.09
77366;BME280;66430;50.182;11.704;2023-04-10T05:22:51;95365.21;;;7.32;37.33
77366;BME280;66430;50.182;11.704;2023-04-10T05:25:17;95362.50;;;7.65;37.16
77366;BME280;66430;50.182;11.704;2023-04-10T05:27:44;95363.70;;;7.18;37.07
77366;BME280;66430;50.182;11.704;2023-04-10T05:30:08;95362.45;;;7.47;36.96
77366;BME280;66430;50.182;11.704;2023-04-10T05:32:33;95361.99;;;7.21;37.12
77366;BME280;66430;50.182;11.704;2023-04-10T05:34:59;95360.11;;;7.20;37.24
77366;BME280;66430;50.182;11.704;2023-04-10T05:37:24;95361.69;;;7.11;37.90
77366;BME280;66430;50.182;11.704;2023-04-10T05:39:49;95361.27;;;7.39;37.59
77366;BME280;66430;50.182;11.704;2023-04-10T05:42:15;95360.26;;;7.38;37.63
77366;BME280;66430;50.182;11.704;2023-04-10T05:44:41;95365.11;;;7.28;38.00
77366;BME280;66430;50.182;11.704;2023-04-10T05:47:07;95368.40;;;7.43;38.33
77366;BME280;66430;50.182;11.704;2023-04-10T05:49:32;95369.33;;;7.88;37.73
77366;BME280;66430;50.182;11.704;2023-04-10T05:51:58;95364.73;;;7.94;37.56
77366;BME280;66430;50.182;11.704;2023-04-10T05:54:23;95367.96;;;7.83;37.77
77366;BME280;66430;50.182;11.704;2023-04-10T05:56:49;95365.78;;;7.76;38.07
77366;BME280;66430;50.182;11.704;2023-04-10T05:59:13;95365.89;;;8.07;38.35
77366;BME280;66430;50.182;11.704;2023-04-10T06:01:40;95366.91;;;7.86;38.84
77366;BME280;66430;50.182;11.704;2023-04-10T06:04:04;95365.43;;;7.67;38.80
77366;BME280;66430;50.182;11.704;2023-04-10T06:06:31;95367.69;;;7.58;38.25
77366;BME280;66430;50.182;11.704;2023-04-10T06:08:56;95366.57;;;7.81;38.23
77366;BME280;66430;50.182;11.704;2023-04-10T06:11:21;95367.58;;;7.64;38.15
77366;BME280;66430;50.182;11.704;2023-04-10T06:13:47;95368.84;;;7.82;38.61
77366;BME280;66430;50.182;11.704;2023-04-10T06:16:12;95365.91;;;7.74;39.30
77366;BME280;66430;50.182;11.704;2023-04-10T06:18:38;95365.04;;;7.92;39.70
77366;BME280;66430;50.182;11.704;2023-04-10T06:21:04;95367.18;;;7.98;39.98
77366;BME280;66430;50.182;11.704;2023-04-10T06:23:29;95361.65;;;7.95;40.20
77366;BME280;66430;50.182;11.704;2023-04-10T06:25:54;95359.10;;;7.72;40.30
77366;BME280;66430;50.182;11.704;2023-04-10T06:28:19;95358.17;;;8.16;40.78
77366;BME280;66430;50.182;11.704;2023-04-10T06:30:45;95353.09;;;7.72;40.64
77366;BME280;66430;50.182;11.704;2023-04-10T06:33:10;95348.55;;;8.55;40.36
77366;BME280;66430;50.182;11.704;2023-04-10T06:35:36;95346.81;;;7.99;40.67
77366;BME280;66430;50.182;11.704;2023-04-10T06:38:01;95345.38;;;8.66;40.16
77366;BME280;66430;50.182;11.704;2023-04-10T06:40:27;95344.11;;;8.26;40.39
77366;BME280;66430;50.182;11.704;2023-04-10T06:42:52;95343.38;;;8.11;40.34
77366;BME280;66430;50.182;11.704;2023-04-10T06:45:17;95345.69;;;8.48;40.07
77366;BME280;66430;50.182;11.704;2023-04-10T06:47:42;95344.26;;;8.37;40.87
77366;BME280;66430;50.182;11.704;2023-04-10T06:50:08;95342.10;;;8.72;40.84
77366;BME280;66430;50.182;11.704;2023-04-10T06:52:33;95345.37;;;8.49;40.28
77366;BME280;66430;50.182;11.704;2023-04-10T06:54:58;95345.16;;;8.79;40.26
77366;BME280;66430;50.182;11.704;2023-04-10T06:57:24;95346.60;;;8.86;39.98
77366;BME280;66430;50.182;11.704;2023-04-10T06:59:49;95345.29;;;9.00;39.79
77366;BME280;66430;50.182;11.704;2023-04-10T07:02:15;95343.73;;;8.85;39.81
77366;BME280;66430;50.182;11.704;2023-04-10T07:04:40;95345.07;;;8.72;40.27
77366;BME280;66430;50.182;11.704;2023-04-10T07:07:05;95343.32;;;8.90;39.76
77366;BME280;66430;50.182;11.704;2023-04-10T07:09:30;95341.47;;;9.52;38.71
77366;BME280;66430;50.182;11.704;2023-04-10T07:11:56;95345.20;;;9.07;38.72
77366;BME280;66430;50.182;11.704;2023-04-10T07:14:22;95340.99;;;9.31;38.48
77366;BME280;66430;50.182;11.704;2023-04-10T07:16:47;95344.89;;;9.76;38.47
77366;BME280;66430;50.182;11.704;2023-04-10T07:19:13;95342.84;;;9.53;37.78
77366;BME280;66430;50.182;11.704;2023-04-10T07:21:38;95344.02;;;9.55;38.60
77366;BME280;66430;50.182;11.704;2023-04-10T07:24:04;95345.86;;;10.03;38.15
77366;BME280;66430;50.182;11.704;2023-04-10T07:26:29;95343.97;;;10.16;37.43
77366;BME280;66430;50.182;11.704;2023-04-10T07:28:54;95344.80;;;9.93;37.81
77366;BME280;66430;50.182;11.704;2023-04-10T07:31:19;95342.02;;;10.33;37.38
77366;BME280;66430;50.182;11.704;2023-04-10T07:33:45;95344.42;;;10.41;37.40
77366;BME280;66430;50.182;11.704;2023-04-10T07:36:09;95346.36;;;10.75;37.19
77366;BME280;66430;50.182;11.704;2023-04-10T07:38:35;95343.90;;;10.96;36.93
77366;BME280;66430;50.182;11.704;2023-04-10T07:41:00;95346.74;;;11.02;35.77
77366;BME280;66430;50.182;11.704;2023-04-10T07:43:26;95348.07;;;11.20;35.28
77366;BME280;66430;50.182;11.704;2023-04-10T07:45:52;95343.45;;;11.12;35.12
77366;BME280;66430;50.182;11.704;2023-04-10T07:48:17;95342.42;;;11.15;36.08
77366;BME280;66430;50.182;11.704;2023-04-10T07:50:43;95340.47;;;11.19;35.96
77366;BME280;66430;50.182;11.704;2023-04-10T07:53:15;95339.73;;;11.26;35.46
77366;BME280;66430;50.182;11.704;2023-04-10T07:55:37;95336.24;;;11.70;35.86
77366;BME280;66430;50.182;11.704;2023-04-10T07:57:59;95331.02;;;10.77;35.35
77366;BME280;66430;50.182;11.704;2023-04-10T08:00:25;95326.64;;;11.08;35.59
77366;BME280;66430;50.182;11.704;2023-04-10T08:02:50;95321.78;;;11.10;36.29
77366;BME280;66430;50.182;11.704;2023-04-10T08:05:16;95322.86;;;11.46;36.50
77366;BME280;66430;50.182;11.704;2023-04-10T08:07:41;95317.33;;;11.06;36.25
77366;BME280;66430;50.182;11.704;2023-04-10T08:10:08;95315.44;;;11.02;37.45
77366;BME280;66430;50.182;11.704;2023-04-10T08:12:32;95312.97;;;10.86;35.92
77366;BME280;66430;50.182;11.704;2023-04-10T08:14:57;95320.87;;;11.41;36.04
77366;BME280;66430;50.182;11.704;2023-04-10T08:17:24;95320.47;;;11.82;35.66
77366;BME280;66430;50.182;11.704;2023-04-10T08:19:48;95322.70;;;11.39;35.27
77366;BME280;66430;50.182;11.704;2023-04-10T08:22:14;95321.34;;;10.94;35.25
77366;BME280;66430;50.182;11.704;2023-04-10T08:24:40;95318.49;;;11.24;35.92
77366;BME280;66430;50.182;11.704;2023-04-10T08:27:04;95318.28;;;11.44;37.02
77366;BME280;66430;50.182;11.704;2023-04-10T08:29:30;95314.20;;;11.53;34.85
77366;BME280;66430;50.182;11.704;2023-04-10T08:31:55;95317.02;;;11.40;36.38
77366;BME280;66430;50.182;11.704;2023-04-10T08:34:21;95313.38;;;11.37;35.08
77366;BME280;66430;50.182;11.704;2023-04-10T08:36:47;95309.34;;;11.54;35.97
77366;BME280;66430;50.182;11.704;2023-04-10T08:39:12;95307.37;;;12.20;34.93
77366;BME280;66430;50.182;11.704;2023-04-10T08:41:40;95301.43;;;12.07;34.47
77366;BME280;66430;50.182;11.704;2023-04-10T08:44:02;95293.98;;;12.39;33.73
77366;BME280;66430;50.182;11.704;2023-04-10T08:46:28;95290.23;;;12.74;33.05
77366;BME280;66430;50.182;11.704;2023-04-10T08:49:00;95288.98;;;13.23;32.80
77366;BME280;66430;50.182;11.704;2023-04-10T08:51:20;95291.35;;;13.28;32.27
77366;BME280;66430;50.182;11.704;2023-04-10T08:53:45;95293.67;;;13.00;31.93
77366;BME280;66430;50.182;11.704;2023-04-10T08:56:11;95296.29;;;13.26;30.91
77366;BME280;66430;50.182;11.704;2023-04-10T08:58:35;95295.29;;;13.94;31.04
77366;BME280;66430;50.182;11.704;2023-04-10T09:01:00;95293.79;;;13.58;31.19
77366;BME280;66430;50.182;11.704;2023-04-10T09:03:25;95286.99;;;13.44;31.45
77366;BME280;66430;50.182;11.704;2023-04-10T09:05:53;95284.80;;;13.64;31.57
77366;BME280;66430;50.182;11.704;2023-04-10T09:08:16;95282.33;;;13.63;30.60
77366;BME280;66430;50.182;11.704;2023-04-10T09:10:41;95283.01;;;13.61;30.60
77366;BME280;66430;50.182;11.704;2023-04-10T09:13:06;95279.57;;;13.60;30.49
77366;BME280;66430;50.182;11.704;2023-04-10T09:17:59;95285.55;;;13.69;30.89
77366;BME280;66430;50.182;11.704;2023-04-10T09:20:24;95281.91;;;13.45;31.10
77366;BME280;66430;50.182;11.704;2023-04-10T09:22:49;95283.23;;;14.22;31.39
77366;BME280;66430;50.182;11.704;2023-04-10T09:27:39;95288.55;;;13.68;30.60
77366;BME280;66430;50.182;11.704;2023-04-10T09:30:07;95288.09;;;14.18;30.18
77366;BME280;66430;50.182;11.704;2023-04-10T09:32:38;95281.93;;;13.81;30.00
77366;BME280;66430;50.182;11.704;2023-04-10T09:34:56;95280.05;;;13.89;29.71
77366;BME280;66430;50.182;11.704;2023-04-10T09:37:22;95278.55;;;14.22;29.43
77366;BME280;66430;50.182;11.704;2023-04-10T09:39:47;95272.10;;;13.91;29.21
77366;BME280;66430;50.182;11.704;2023-04-10T09:42:12;95266.18;;;14.51;29.81
77366;BME280;66430;50.182;11.704;2023-04-10T09:44:39;95262.95;;;15.01;30.03
77366;BME280;66430;50.182;11.704;2023-04-10T09:47:16;95260.96;;;14.50;29.74
77366;BME280;66430;50.182;11.704;2023-04-10T09:49:38;95255.40;;;14.40;30.07
77366;BME280;66430;50.182;11.704;2023-04-10T09:51:54;95248.94;;;15.01;29.49
77366;BME280;66430;50.182;11.704;2023-04-10T09:56:45;95240.20;;;15.15;28.96
77366;BME280;66430;50.182;11.704;2023-04-10T09:59:13;95239.55;;;15.48;28.72
77366;BME280;66430;50.182;11.704;2023-04-10T10:01:36;95240.00;;;15.05;27.41
77366;BME280;66430;50.182;11.704;2023-04-10T10:04:02;95234.60;;;15.36;27.16
77366;BME280;66430;50.182;11.704;2023-04-10T10:06:26;95226.49;;;15.90;27.72
77366;BME280;66430;50.182;11.704;2023-04-10T10:08:52;95224.41;;;15.70;26.94
77366;BME280;66430;50.182;11.704;2023-04-10T10:13:46;95219.43;;;16.08;27.88
77366;BME280;66430;50.182;11.704;2023-04-10T10:16:14;95220.36;;;15.56;27.49
77366;BME280;66430;50.182;11.704;2023-04-10T10:18:46;95217.22;;;16.06;27.89
77366;BME280;66430;50.182;11.704;2023-04-10T10:20:58;95214.52;;;15.84;26.88
77366;BME280;66430;50.182;11.704;2023-04-10T10:23:24;95214.60;;;15.89;27.10
77366;BME280;66430;50.182;11.704;2023-04-10T10:25:49;95204.22;;;15.52;26.10
77366;BME280;66430;50.182;11.704;2023-04-10T10:28:15;95203.44;;;15.61;25.86
77366;BME280;66430;50.182;11.704;2023-04-10T10:30:40;95203.27;;;15.91;26.26
77366;BME280;66430;50.182;11.704;2023-04-10T10:33:06;95199.75;;;15.83;25.78
77366;BME280;66430;50.182;11.704;2023-04-10T10:35:30;95199.94;;;15.96;25.99
77366;BME280;66430;50.182;11.704;2023-04-10T10:37:56;95194.12;;;15.78;24.81
77366;BME280;66430;50.182;11.704;2023-04-10T10:40:26;95184.50;;;16.25;25.39
77366;BME280;66430;50.182;11.704;2023-04-10T10:42:52;95181.93;;;16.08;25.95
77366;BME280;66430;50.182;11.704;2023-04-10T10:45:15;95182.58;;;15.99;24.90
77366;BME280;66430;50.182;11.704;2023-04-10T10:47:41;95177.12;;;16.38;24.25
77366;BME280;66430;50.182;11.704;2023-04-10T10:50:03;95172.87;;;16.35;25.36
77366;BME280;66430;50.182;11.704;2023-04-10T10:52:37;95172.48;;;16.18;24.62
77366;BME280;66430;50.182;11.704;2023-04-10T10:54:52;95172.32;;;16.33;24.92
77366;BME280;66430;50.182;11.704;2023-04-10T10:59:53;95167.12;;;16.50;25.70
77366;BME280;66430;50.182;11.704;2023-04-10T11:02:14;95169.42;;;16.55;25.51
77366;BME280;66430;50.182;11.704;2023-04-10T11:04:42;95169.85;;;16.59;24.75
77366;BME280;66430;50.182;11.704;2023-04-10T11:06:59;95169.56;;;16.17;24.54
77366;BME280;66430;50.182;11.704;2023-04-10T11:11:56;95164.73;;;16.20;24.56
77366;BME280;66430;50.182;11.704;2023-04-10T11:14:16;95162.98;;;16.28;24.75
77366;BME280;66430;50.182;11.704;2023-04-10T11:16:41;95155.24;;;16.67;24.88
77366;BME280;66430;50.182;11.704;2023-04-10T11:19:07;95157.65;;;16.33;24.29
77366;BME280;66430;50.182;11.704;2023-04-10T11:21:31;95148.64;;;16.51;23.96
77366;BME280;66430;50.182;11.704;2023-04-10T11:24:03;95149.96;;;16.27;24.73
77366;BME280;66430;50.182;11.704;2023-04-10T11:26:35;95146.81;;;16.43;26.20
77366;BME280;66430;50.182;11.704;2023-04-10T11:28:47;95144.70;;;16.43;24.45
77366;BME280;66430;50.182;11.704;2023-04-10T11:31:14;95136.86;;;16.75;25.62
77366;BME280;66430;50.182;11.704;2023-04-10T11:33:37;95137.88;;;17.05;26.04
77366;BME280;66430;50.182;11.704;2023-04-10T11:36:03;95137.84;;;16.59;24.58
77366;BME280;66430;50.182;11.704;2023-04-10T11:38:28;95134.83;;;16.78;25.59
77366;BME280;66430;50.182;11.704;2023-04-10T11:40:55;95134.37;;;16.38;24.60
77366;BME280;66430;50.182;11.704;2023-04-10T11:43:19;95139.04;;;16.84;24.81
77366;BME280;66430;50.182;11.704;2023-04-10T11:45:45;95131.61;;;16.74;25.48
77366;BME280;66430;50.182;11.704;2023-04-10T11:48:09;95129.80;;;16.95;26.58
77366;BME280;66430;50.182;11.704;2023-04-10T11:50:35;95129.08;;;17.16;24.31
77366;BME280;66430;50.182;11.704;2023-04-10T11:53:01;95126.95;;;16.98;24.05
77366;BME280;66430;50.182;11.704;2023-04-10T11:55:36;95119.75;;;16.85;23.85
77366;BME280;66430;50.182;11.704;2023-04-10T11:57:51;95108.84;;;17.31;24.85
77366;BME280;66430;50.182;11.704;2023-04-10T12:00:21;95111.21;;;17.18;24.47
77366;BME280;66430;50.182;11.704;2023-04-10T12:02:51;95113.20;;;16.64;24.84
77366;BME280;66430;50.182;11.704;2023-04-10T12:05:08;95106.84;;;16.28;24.08
77366;BME280;66430;50.182;11.704;2023-04-10T12:07:32;95102.84;;;17.13;24.86
77366;BME280;66430;50.182;11.704;2023-04-10T12:09:57;95099.40;;;17.53;24.77
77366;BME280;66430;50.182;11.704;2023-04-10T12:14:48;95103.08;;;17.10;23.54
77366;BME280;66430;50.182;11.704;2023-04-10T12:17:13;95097.04;;;17.03;24.43
77366;BME280;66430;50.182;11.704;2023-04-10T12:19:39;95097.55;;;17.42;24.17
77366;BME280;66430;50.182;11.704;2023-04-10T12:22:10;95077.14;;;17.05;24.21
77366;BME280;66430;50.182;11.704;2023-04-10T12:24:40;95087.94;;;17.29;24.32
77366;BME280;66430;50.182;11.704;2023-04-10T12:26:53;95089.73;;;16.94;23.60
77366;BME280;66430;50.182;11.704;2023-04-10T12:29:18;95075.40;;;17.14;24.30
77366;BME280;66430;50.182;11.704;2023-04-10T12:31:44;95072.56;;;17.13;24.10
77366;BME280;66430;50.182;11.704;2023-04-10T12:34:09;95080.75;;;16.96;24.22
77366;BME280;66430;50.182;11.704;2023-04-10T12:36:35;95079.14;;;17.23;23.81
77366;BME280;66430;50.182;11.704;2023-04-10T12:39:01;95080.35;;;16.92;24.48
77366;BME280;66430;50.182;11.704;2023-04-10T12:41:27;95073.17;;;16.98;23.53
77366;BME280;66430;50.182;11.704;2023-04-10T12:43:51;95065.73;;;16.96;23.85
77366;BME280;66430;50.182;11.704;2023-04-10T12:46:22;95061.44;;;16.77;24.13
77366;BME280;66430;50.182;11.704;2023-04-10T12:48:42;95059.02;;;17.13;23.68
77366;BME280;66430;50.182;11.704;2023-04-10T12:51:08;95058.32;;;17.13;23.24
77366;BME280;66430;50.182;11.704;2023-04-10T12:53:41;95059.68;;;16.90;23.58
77366;BME280;66430;50.182;11.704;2023-04-10T12:56:01;95056.79;;;16.97;23.76
77366;BME280;66430;50.182;11.704;2023-04-10T12:58:23;95049.12;;;17.14;24.10
77366;BME280;66430;50.182;11.704;2023-04-10T13:00:49;95041.73;;;17.05;23.28
77366;BME280;66430;50.182;11.704;2023-04-10T13:03:14;95035.90;;;16.86;23.12